Pomorie — V4JJ2 — position and weather

sailwx.info

Track history (hours):
 
Tides and Currents Weather Stations Pressure Air Temp Water Temp Dewpoint Dewpoint Depression Visibility Wind Speed Wind Dir Waves Ship Positions

Pomorie

Last reported at 2016-Aug-21 16:08 UTC. Time now 2016-Aug-27 04:44 UTC.
Position N 44°53' E 036°47'.

Length 114 m; draft 3.9 m.

Type: Cargo ship. MMSI: 341071000.

Date/timePositionNaut miles runAvg speedWind from/ knotsBaromVisibWave heightAir tempDewpointWater temp
2016-Aug-21 16:08N 44°53' E 036°47'27 0.8
2016-Aug-20 07:24N 45°17' E 036°29'5 6.2
2016-Aug-20 06:33N 45°20' E 036°35'7 6.9
2016-Aug-20 05:33N 45°25' E 036°41'  
2016-Aug-13 04:32N 47°04' E 038°48'13 6.4
2016-Aug-13 02:33N 47°00' E 038°30'7 6.8
2016-Aug-13 01:33N 46°60' E 038°20'7 6.8
2016-Aug-13 00:33N 46°59' E 038°10'7 7.0
2016-Aug-12 23:33N 46°56' E 038°01'8 7.1
2016-Aug-12 22:26N 46°54' E 037°50'6 7.4
2016-Aug-12 21:33N 46°52' E 037°41'8 7.1
2016-Aug-12 20:23N 46°48' E 037°30'6 7.8
2016-Aug-12 19:33N 46°42' E 037°26'77 8.3
2016-Aug-12 10:21N 45°31' E 036°45'6 8.1
2016-Aug-12 09:33N 45°25' E 036°41'8 8.0
2016-Aug-12 08:34N 45°20' E 036°34'7 7.4
2016-Aug-12 07:33N 45°13' E 036°29'4 1.4
2016-Aug-12 04:33N 45°09' E 036°29'  
Track history (hours):
 
Tides and Currents Weather Stations Pressure Air Temp Water Temp Dewpoint Dewpoint Depression Visibility Wind Speed Wind Dir Waves Ship Positions

Pomorie

Last reported at 2016-Aug-21 16:08 UTC. Time now 2016-Aug-27 04:44 UTC.
Position N 44°53' E 036°47'.

Length 114 m; draft 3.9 m.

Type: Cargo ship. MMSI: 341071000.

Date/timePositionNaut miles runAvg speedWind from/ knotsBaromVisibWave heightAir tempDewpointWater temp
2016-Aug-21 16:08N 44°53' E 036°47'27 0.8
2016-Aug-20 07:24N 45°17' E 036°29'5 6.2
2016-Aug-20 06:33N 45°20' E 036°35'7 6.9
2016-Aug-20 05:33N 45°25' E 036°41'  
2016-Aug-13 04:32N 47°04' E 038°48'13 6.4
2016-Aug-13 02:33N 47°00' E 038°30'7 6.8
2016-Aug-13 01:33N 46°60' E 038°20'7 6.8
2016-Aug-13 00:33N 46°59' E 038°10'7 7.0
2016-Aug-12 23:33N 46°56' E 038°01'8 7.1
2016-Aug-12 22:26N 46°54' E 037°50'6 7.4
2016-Aug-12 21:33N 46°52' E 037°41'8 7.1
2016-Aug-12 20:23N 46°48' E 037°30'6 7.8
2016-Aug-12 19:33N 46°42' E 037°26'77 8.3
2016-Aug-12 10:21N 45°31' E 036°45'6 8.1
2016-Aug-12 09:33N 45°25' E 036°41'8 8.0
2016-Aug-12 08:34N 45°20' E 036°34'7 7.4
2016-Aug-12 07:33N 45°13' E 036°29'4 1.4
2016-Aug-12 04:33N 45°09' E 036°29'  

Dump ship's entire track history